Time;durP1;ratioP1;P1;durP2;ratioP2;P2;SDS_P1;SDS_P2;PMS_P1;PMS_P2;Temp;Humidity;BMP_temperature;BMP_pressure;BME280_temperature;BME280_humidity;BME280_pressure;Samples;Min_cycle;Max_cycle;Signal;HPM_P1;HPM_P2
2022/10/26 00:00:48;;;;;;;13.13;2.23;;;;;;;19.28;45.88;99234.84;5098763;28;20178;-87
2022/10/26 00:03:15;;;;;;;12.67;2.30;;;;;;;19.23;45.89;99237.06;5098681;28;20617;-87
2022/10/26 00:05:40;;;;;;;4.47;1.87;;;;;;;19.21;46.00;99229.22;5098612;28;20183;-87
2022/10/26 00:08:06;;;;;;;7.97;2.10;;;;;;;19.19;45.92;99240.94;5116603;28;20165;-88
2022/10/26 00:10:38;;;;;;;8.80;2.67;;;;;;;19.08;46.12;99233.91;5116777;28;20276;-88
2022/10/26 00:13:07;;;;;;;9.70;2.80;;;;;;;18.91;46.20;99235.34;5098445;28;20173;-87
2022/10/26 00:15:33;;;;;;;5.33;2.13;;;;;;;18.89;46.18;99229.31;5116698;28;20290;-88
2022/10/26 00:17:58;;;;;;;11.57;2.33;;;;;;;18.92;45.99;99229.06;5116379;28;20164;-88
2022/10/26 00:20:24;;;;;;;4.70;1.70;;;;;;;18.89;46.53;99217.88;5116394;28;20199;-88
2022/10/26 00:22:49;;;;;;;5.83;1.60;;;;;;;18.85;46.82;99227.91;5098256;28;20262;-87
2022/10/26 00:25:15;;;;;;;5.23;2.30;;;;;;;18.90;46.87;99233.66;5116219;28;20172;-87
2022/10/26 00:27:40;;;;;;;5.27;1.73;;;;;;;18.94;46.82;99221.81;5116225;28;20172;-87
2022/10/26 00:30:06;;;;;;;11.33;3.63;;;;;;;19.03;46.54;99229.00;5116630;28;20232;-87
2022/10/26 00:32:32;;;;;;;11.23;2.30;;;;;;;18.99;46.53;99232.91;5098042;28;20167;-87
2022/10/26 00:34:58;;;;;;;10.30;2.03;;;;;;;18.94;46.53;99232.44;5098063;28;20645;-88
2022/10/26 00:37:23;;;;;;;5.30;2.07;;;;;;;18.86;46.48;99228.75;5097985;28;20175;-88
2022/10/26 00:39:49;;;;;;;7.77;1.93;;;;;;;18.67;47.42;99229.47;5115115;28;20168;-87
2022/10/26 00:42:19;;;;;;;5.07;1.83;;;;;;;18.60;47.65;99225.66;5115951;28;20182;-87
2022/10/26 00:44:57;;;;;;;8.90;2.30;;;;;;;18.51;47.76;99228.22;5097925;28;20168;-87
2022/10/26 00:47:27;;;;;;;8.43;2.40;;;;;;;18.47;48.06;99225.00;5097964;28;20160;-87
2022/10/26 00:49:55;;;;;;;8.47;2.23;;;;;;;18.54;47.97;99227.97;5115703;28;20188;-87
2022/10/26 00:52:21;;;;;;;6.73;2.63;;;;;;;18.46;47.92;99225.91;5115558;28;20640;-87
2022/10/26 00:54:47;;;;;;;6.10;2.07;;;;;;;18.41;48.24;99218.34;5097715;28;20179;-87
2022/10/26 00:57:15;;;;;;;7.40;2.10;;;;;;;18.40;48.44;99210.50;5097623;28;20254;-87
2022/10/26 00:59:43;;;;;;;10.87;3.23;;;;;;;18.34;48.31;99211.03;5115549;28;20577;-87
2022/10/26 01:02:09;;;;;;;7.97;1.73;;;;;;;18.31;48.74;99211.28;5097554;28;20172;-88
2022/10/26 01:04:35;;;;;;;12.20;2.60;;;;;;;18.24;49.05;99205.63;5115806;28;20165;-87
2022/10/26 01:07:02;;;;;;;8.77;2.23;;;;;;;18.10;49.35;99210.38;5097450;28;20190;-87
2022/10/26 01:09:28;;;;;;;7.73;2.63;;;;;;;18.04;49.62;99210.88;5097294;28;20562;-87
2022/10/26 01:11:54;;;;;;;10.93;2.50;;;;;;;18.05;49.43;99210.78;5115352;28;20168;-88
2022/10/26 01:14:20;;;;;;;7.80;2.40;;;;;;;18.01;49.39;99213.78;5097299;28;20179;-88
2022/10/26 01:16:58;;;;;;;7.67;2.23;;;;;;;17.83;50.13;99210.81;5115782;28;20172;-87
2022/10/26 01:19:51;;;;;;;8.27;2.53;;;;;;;17.74;50.69;99211.56;5097294;28;20228;-87
2022/10/26 01:22:25;;;;;;;10.50;3.20;;;;;;;17.89;50.36;99212.13;5097163;28;20221;-87
2022/10/26 01:24:59;;;;;;;12.47;3.50;;;;;;;17.76;50.89;99209.63;5097105;28;20550;-88
2022/10/26 01:27:34;;;;;;;6.10;2.30;;;;;;;17.67;51.68;99205.91;5115057;28;20182;-88
2022/10/26 01:30:24;;;;;;;7.30;2.93;;;;;;;17.68;51.50;99207.59;5115180;28;20195;-87
2022/10/26 01:33:27;;;;;;;8.07;2.37;;;;;;;17.68;51.87;99207.59;5114972;28;20174;-87
2022/10/26 01:36:12;;;;;;;7.00;2.87;;;;;;;17.67;50.78;99200.59;5096813;28;20176;-87
2022/10/26 01:39:00;;;;;;;4.77;1.73;;;;;;;17.63;50.87;99208.94;5097204;28;20172;-87
2022/10/26 01:41:34;;;;;;;13.80;2.83;;;;;;;17.63;50.69;99215.09;5115037;28;20172;-88
2022/10/26 01:44:38;;;;;;;12.73;2.73;;;;;;;17.65;50.23;99212.31;5097874;28;20577;-87
2022/10/26 01:47:05;;;;;;;8.90;2.53;;;;;;;17.60;50.45;99215.31;5096725;28;20163;-88
2022/10/26 01:49:38;;;;;;;13.17;2.83;;;;;;;17.62;50.91;99208.09;5114500;28;20195;-87
2022/10/26 01:52:04;;;;;;;11.17;3.10;;;;;;;17.82;52.70;99210.94;5115274;28;20199;-88
2022/10/26 01:54:30;;;;;;;15.13;3.60;;;;;;;17.94;53.05;99217.91;5114764;28;20177;-88
2022/10/26 01:57:01;;;;;;;12.63;3.17;;;;;;;18.20;52.60;99213.97;5114753;28;20672;-88
2022/10/26 01:59:41;;;;;;;13.50;2.90;;;;;;;18.40;52.24;99213.13;5114772;28;20246;-88
2022/10/26 02:02:28;;;;;;;10.73;3.70;;;;;;;18.56;52.01;99216.22;5096443;28;20172;-88
2022/10/26 02:05:27;;;;;;;16.90;3.97;;;;;;;18.76;51.59;99211.91;5114587;28;20183;-87
2022/10/26 02:08:03;;;;;;;13.47;3.70;;;;;;;18.83;49.77;99216.56;5114764;28;20175;-88
2022/10/26 02:10:41;;;;;;;9.70;3.30;;;;;;;18.75;49.30;99208.41;5114698;28;20200;-88
2022/10/26 02:13:19;;;;;;;12.70;3.10;;;;;;;18.89;49.93;99205.41;5096209;28;20175;-88
2022/10/26 02:15:52;;;;;;;18.07;4.13;;;;;;;18.95;49.42;99196.91;5096138;28;20181;-88
2022/10/26 02:18:33;;;;;;;7.70;2.50;;;;;;;18.87;49.64;99199.38;5114377;28;20668;-87
2022/10/26 02:21:04;;;;;;;10.23;3.80;;;;;;;18.92;49.66;99197.19;5096186;28;20191;-88
2022/10/26 02:23:33;;;;;;;15.80;3.47;;;;;;;19.06;49.37;99197.81;5114336;28;20188;-87
2022/10/26 02:26:00;;;;;;;6.43;2.73;;;;;;;19.09;49.09;99206.38;5113934;28;20175;-87
2022/10/26 02:28:37;;;;;;;8.43;2.80;;;;;;;19.23;48.89;99203.38;5095977;28;20167;-87
2022/10/26 02:31:05;;;;;;;6.13;2.37;;;;;;;19.35;48.32;99206.75;5114102;28;20191;-87
2022/10/26 02:33:37;;;;;;;12.97;3.70;;;;;;;19.34;48.46;99202.44;5095833;28;20172;-87
2022/10/26 02:36:06;;;;;;;11.50;3.40;;;;;;;19.41;48.16;99203.59;5095886;28;20320;-87
2022/10/26 02:38:34;;;;;;;7.83;2.67;;;;;;;19.43;47.82;99202.50;5095820;28;20275;-87
2022/10/26 02:41:01;;;;;;;11.20;3.57;;;;;;;19.42;47.58;99191.97;5113701;28;20176;-87
2022/10/26 02:43:29;;;;;;;7.13;1.97;;;;;;;19.42;47.81;99191.97;5095691;28;20167;-87
2022/10/26 02:46:07;;;;;;;11.87;3.00;;;;;;;19.49;47.32;99195.78;5113648;28;20264;-87
2022/10/26 02:48:34;;;;;;;12.30;2.83;;;;;;;19.34;47.98;99195.28;5095780;28;20163;-87
2022/10/26 02:51:08;;;;;;;9.67;2.23;;;;;;;19.33;47.86;99195.41;5113403;28;20195;-87
2022/10/26 02:53:52;;;;;;;16.23;2.83;;;;;;;19.37;47.98;99192.38;5095711;28;20212;-87
2022/10/26 02:56:23;;;;;;;7.80;2.23;;;;;;;19.57;47.47;99198.63;5095610;28;20184;-87
2022/10/26 02:58:54;;;;;;;9.23;2.67;;;;;;;19.68;46.92;99201.16;5113544;28;20171;-87
2022/10/26 03:01:20;;;;;;;12.93;3.00;;;;;;;19.83;46.44;99196.31;5113491;28;20167;-86
2022/10/26 03:03:46;;;;;;;8.87;2.40;;;;;;;19.89;46.31;99204.56;5095103;28;20179;-86
2022/10/26 03:06:19;;;;;;;10.63;2.83;;;;;;;19.92;46.45;99206.09;5096548;28;20175;-87
2022/10/26 03:08:44;;;;;;;8.17;3.30;;;;;;;19.85;46.33;99207.63;5095475;28;20167;-87
2022/10/26 03:11:09;;;;;;;13.70;2.93;;;;;;;19.83;46.15;99213.09;5095388;28;20535;-86
2022/10/26 03:13:35;;;;;;;10.90;2.93;;;;;;;19.96;45.73;99219.00;5095431;28;20572;-86
2022/10/26 03:16:00;;;;;;;7.70;2.33;;;;;;;20.07;45.43;99215.38;5113539;28;20179;-86
2022/10/26 03:18:26;;;;;;;6.80;2.67;;;;;;;19.95;45.52;99214.66;5113585;28;20171;-88
2022/10/26 03:20:51;;;;;;;8.63;2.87;;;;;;;20.18;45.20;99218.75;5113262;28;20164;-88
2022/10/26 03:23:16;;;;;;;5.20;2.50;;;;;;;20.15;45.02;99219.03;5095361;28;20532;-88
2022/10/26 03:25:42;;;;;;;6.90;2.03;;;;;;;20.35;44.90;99222.56;5095355;28;20210;-88
2022/10/26 03:28:08;;;;;;;7.77;2.97;;;;;;;20.28;44.63;99225.94;5113197;28;20538;-88
2022/10/26 03:30:33;;;;;;;8.03;2.57;;;;;;;20.28;44.76;99218.81;5095203;28;20589;-88
2022/10/26 03:32:59;;;;;;;7.37;2.67;;;;;;;20.31;44.45;99231.00;5096028;28;20622;-88
2022/10/26 03:35:24;;;;;;;9.97;2.30;;;;;;;20.38;44.48;99227.63;5095208;28;20639;-88
2022/10/26 03:37:49;;;;;;;6.17;2.47;;;;;;;20.45;44.21;99230.56;5113084;28;20171;-88
2022/10/26 03:40:15;;;;;;;7.27;2.73;;;;;;;20.45;44.30;99233.22;5095170;28;20171;-88
2022/10/26 03:42:40;;;;;;;6.63;3.50;;;;;;;20.50;44.29;99230.97;5095113;28;20710;-87
2022/10/26 03:45:07;;;;;;;13.63;3.20;;;;;;;20.52;44.19;99229.84;5095192;28;20180;-87
2022/10/26 03:47:33;;;;;;;9.03;2.67;;;;;;;20.57;43.75;99237.44;5113070;28;20621;-87
2022/10/26 03:49:59;;;;;;;15.00;2.93;;;;;;;20.57;43.87;99256.09;5094982;28;20202;-86
2022/10/26 03:52:24;;;;;;;9.77;2.23;;;;;;;20.54;43.97;99243.03;5094835;28;20699;-86
2022/10/26 03:54:51;;;;;;;10.47;3.60;;;;;;;20.56;43.99;99246.41;5095021;28;20175;-87
2022/10/26 03:57:16;;;;;;;6.50;2.53;;;;;;;20.42;44.07;99249.47;5095054;28;20172;-87
2022/10/26 03:59:42;;;;;;;15.57;2.80;;;;;;;20.32;44.35;99248.63;5112911;28;20511;-87
2022/10/26 04:02:07;;;;;;;6.23;2.30;;;;;;;20.06;44.51;99254.47;5095013;28;20179;-86
2022/10/26 04:04:33;;;;;;;5.93;1.93;;;;;;;19.86;44.91;99266.03;5095772;28;20184;-87
2022/10/26 04:06:58;;;;;;;9.47;2.57;;;;;;;19.59;45.46;99266.66;5094927;28;20172;-86
2022/10/26 04:09:24;;;;;;;7.83;2.47;;;;;;;19.29;46.04;99273.72;5113046;28;20202;-86
2022/10/26 04:11:49;;;;;;;6.37;2.70;;;;;;;19.03;46.64;99275.97;5094883;28;20527;-86
2022/10/26 04:14:14;;;;;;;12.03;3.47;;;;;;;18.75;47.83;99274.81;5113047;28;20219;-86
2022/10/26 04:16:40;;;;;;;18.37;3.70;;;;;;;18.58;47.91;99280.66;5097903;28;20553;-87
2022/10/26 04:19:05;;;;;;;11.97;3.37;;;;;;;18.52;48.40;99277.69;5116336;28;20232;-87
2022/10/26 04:21:34;;;;;;;20.57;3.60;;;;;;;18.36;49.03;99272.78;5116365;28;20258;-86
2022/10/26 04:24:00;;;;;;;7.47;2.93;;;;;;;18.25;50.06;99292.22;5098201;28;20591;-87
2022/10/26 04:26:26;;;;;;;9.97;3.10;;;;;;;18.10;50.83;99288.16;5116248;28;20175;-86
2022/10/26 04:28:51;;;;;;;10.83;2.80;;;;;;;18.09;51.12;99290.91;5098131;28;20175;-86
2022/10/26 04:31:17;;;;;;;12.57;3.03;;;;;;;18.09;51.58;99290.91;5098245;28;20192;-86
2022/10/26 04:33:42;;;;;;;8.70;3.33;;;;;;;17.99;51.89;99287.34;5098172;28;20175;-88
2022/10/26 04:36:08;;;;;;;14.23;2.80;;;;;;;18.01;52.48;99291.53;5116279;28;20239;-87
2022/10/26 04:38:33;;;;;;;10.63;3.20;;;;;;;18.08;52.04;99283.94;5115992;28;20170;-87
2022/10/26 04:40:58;;;;;;;10.03;3.43;;;;;;;18.08;52.21;99297.22;5097952;28;20609;-88
2022/10/26 04:43:24;;;;;;;14.93;3.47;;;;;;;18.11;52.35;99302.25;5115937;28;20175;-87
2022/10/26 04:45:53;;;;;;;18.83;3.50;;;;;;;18.09;52.51;99290.91;5116097;28;20181;-88
2022/10/26 04:48:19;;;;;;;11.40;3.30;;;;;;;18.04;52.62;99299.25;5115819;28;20171;-86
2022/10/26 04:50:44;;;;;;;11.77;2.83;;;;;;;18.04;52.74;99303.72;5097733;28;20244;-87
2022/10/26 04:53:10;;;;;;;20.23;3.70;;;;;;;18.02;52.98;99306.50;5097711;28;20617;-88
2022/10/26 04:55:36;;;;;;;7.93;2.87;;;;;;;18.05;52.87;99316.88;5097789;28;20576;-86
2022/10/26 04:58:02;;;;;;;11.57;2.70;;;;;;;18.12;52.75;99311.91;5098736;28;20182;-86
2022/10/26 05:00:29;;;;;;;7.47;2.83;;;;;;;18.14;52.72;99309.97;5097647;28;20164;-89
2022/10/26 05:03:06;;;;;;;8.67;3.90;;;;;;;18.22;52.95;99305.72;5115522;28;20244;-87
2022/10/26 05:05:33;;;;;;;15.03;3.30;;;;;;;18.17;52.86;99307.06;5115724;28;20624;-87
2022/10/26 05:07:59;;;;;;;7.87;2.40;;;;;;;18.20;52.89;99317.44;5097406;28;20203;-87
2022/10/26 05:10:25;;;;;;;7.57;2.53;;;;;;;18.33;52.49;99315.47;5115810;28;20230;-87
2022/10/26 05:12:52;;;;;;;5.07;2.53;;;;;;;18.29;52.88;99320.19;5115563;28;20527;-88
2022/10/26 05:15:18;;;;;;;13.10;4.63;;;;;;;18.37;52.79;99317.75;5115304;28;20315;-87
2022/10/26 05:17:43;;;;;;;18.50;2.93;;;;;;;18.45;52.56;99324.25;5115267;28;20171;-87
2022/10/26 05:20:12;;;;;;;12.10;2.93;;;;;;;18.59;52.33;99324.84;5115177;28;20171;-87
2022/10/26 05:22:38;;;;;;;5.57;2.63;;;;;;;18.72;51.74;99329.97;5097159;28;20218;-88
2022/10/26 05:25:04;;;;;;;10.53;3.03;;;;;;;18.78;51.84;99330.31;5097150;28;20178;-87
2022/10/26 05:27:30;;;;;;;9.87;3.20;;;;;;;19.01;50.98;99323.06;5114747;28;20585;-87
2022/10/26 05:29:55;;;;;;;9.43;2.60;;;;;;;19.08;50.91;99329.56;5115198;28;20668;-87
2022/10/26 05:32:20;;;;;;;10.53;2.90;;;;;;;19.02;51.09;99325.59;5115114;28;20684;-88
2022/10/26 05:34:46;;;;;;;12.10;2.60;;;;;;;19.17;50.58;99326.13;5114906;28;20167;-87
2022/10/26 05:37:11;;;;;;;18.23;2.83;;;;;;;19.23;50.35;99332.75;5096940;28;20274;-87
2022/10/26 05:39:37;;;;;;;5.90;2.13;;;;;;;19.37;49.84;99341.25;5115089;28;20175;-86
2022/10/26 05:42:02;;;;;;;9.07;2.60;;;;;;;19.40;49.64;99338.34;5096789;28;20205;-87
2022/10/26 05:44:27;;;;;;;17.77;3.00;;;;;;;19.67;49.24;99339.59;5096774;28;20190;-86
2022/10/26 05:46:53;;;;;;;8.60;2.50;;;;;;;19.69;48.86;99345.63;5097004;28;20179;-88
2022/10/26 05:49:18;;;;;;;9.87;2.93;;;;;;;19.75;48.46;99353.06;5096564;28;20196;-87
2022/10/26 05:51:44;;;;;;;5.17;2.30;;;;;;;19.88;48.12;99361.66;5096680;28;20195;-88
2022/10/26 05:54:09;;;;;;;9.03;2.83;;;;;;;20.09;47.39;99365.97;5114496;28;20186;-87
2022/10/26 05:56:37;;;;;;;11.20;3.43;;;;;;;20.48;46.45;99372.25;5114500;28;20172;-88
2022/10/26 05:59:09;;;;;;;7.23;2.40;;;;;;;20.74;45.83;99372.56;5096436;28;20179;-87
2022/10/26 06:02:14;;;;;;;12.00;3.00;;;;;;;21.11;45.22;99386.94;5096466;28;20251;-87
2022/10/26 06:04:39;;;;;;;11.30;3.03;;;;;;;21.50;44.09;99386.88;5114881;28;20162;-87
2022/10/26 06:07:14;;;;;;;6.53;2.17;;;;;;;22.09;43.09;99390.09;5096616;28;20178;-87
2022/10/26 06:09:40;;;;;;;9.23;3.10;;;;;;;22.66;41.63;99393.50;5114124;28;20191;-88
2022/10/26 06:12:07;;;;;;;7.67;2.60;;;;;;;23.16;40.50;99395.50;5096603;28;20175;-87
2022/10/26 06:14:34;;;;;;;9.20;3.07;;;;;;;23.35;39.91;99397.13;5114121;28;20172;-88
2022/10/26 06:17:17;;;;;;;6.53;2.10;;;;;;;23.58;39.37;99401.06;5096062;28;20617;-86
2022/10/26 06:19:50;;;;;;;6.70;2.97;;;;;;;23.73;39.47;99407.50;5096131;28;20160;-88
2022/10/26 06:22:31;;;;;;;13.90;3.13;;;;;;;23.87;39.87;99406.09;5096698;28;20175;-87
2022/10/26 06:25:13;;;;;;;7.67;2.90;;;;;;;24.17;38.72;99407.44;5114351;28;20163;-87
2022/10/26 06:27:56;;;;;;;6.07;2.43;;;;;;;24.37;38.43;99408.91;5096041;28;20288;-87
2022/10/26 06:30:22;;;;;;;9.23;2.87;;;;;;;24.51;38.41;99408.25;5114380;28;20184;-88
2022/10/26 06:32:49;;;;;;;8.37;2.63;;;;;;;24.34;38.57;99418.06;5114179;28;20183;-87
2022/10/26 06:35:36;;;;;;;6.30;2.20;;;;;;;24.21;38.30;99422.22;5095852;28;20295;-88
2022/10/26 06:38:07;;;;;;;4.77;2.33;;;;;;;23.97;39.30;99435.44;5096016;28;20164;-87
2022/10/26 06:40:36;;;;;;;6.20;2.57;;;;;;;23.93;39.39;99431.38;5114328;28;20152;-88
2022/10/26 06:43:02;;;;;;;6.63;2.43;;;;;;;23.92;38.86;99435.91;5113694;28;20170;-87
2022/10/26 06:45:27;;;;;;;5.00;2.80;;;;;;;23.96;39.04;99439.94;5095751;28;20180;-87
2022/10/26 06:48:24;;;;;;;5.33;2.20;;;;;;;24.39;38.44;99437.22;5095929;28;20176;-87
2022/10/26 06:50:53;;;;;;;4.30;2.40;;;;;;;24.71;37.80;99435.66;5093536;28;20199;-89
2022/10/26 06:53:32;;;;;;;6.07;2.03;;;;;;;24.68;38.12;99436.81;5113728;28;20203;-89
2022/10/26 06:55:59;;;;;;;12.87;2.53;;;;;;;24.78;38.02;99426.81;5095605;28;20183;-87
2022/10/26 06:58:29;;;;;;;10.60;2.83;;;;;;;25.14;37.60;99432.75;5095571;28;20167;-88
2022/10/26 07:00:55;;;;;;;7.83;3.00;;;;;;;25.40;36.95;99429.91;5095583;28;20254;-89
2022/10/26 07:03:21;;;;;;;9.93;2.63;;;;;;;25.17;36.92;99436.94;5095468;28;20172;-87
2022/10/26 07:05:47;;;;;;;13.67;3.07;;;;;;;24.98;38.06;99444.28;5113454;28;20621;-88
2022/10/26 07:08:13;;;;;;;4.43;2.40;;;;;;;24.77;37.97;99445.69;5095497;28;20180;-89
2022/10/26 07:10:38;;;;;;;6.57;2.27;;;;;;;24.82;38.06;99448.78;5095403;28;20236;-88
2022/10/26 07:13:05;;;;;;;5.30;1.77;;;;;;;24.78;38.04;99450.06;5095464;28;20640;-87
2022/10/26 07:15:31;;;;;;;6.80;2.10;;;;;;;25.00;38.08;99441.44;5095675;28;20471;-88
2022/10/26 07:17:57;;;;;;;13.07;4.13;;;;;;;25.10;37.83;99444.00;5113318;28;20250;-88
2022/10/26 07:20:22;;;;;;;8.83;2.63;;;;;;;25.15;37.60;99438.97;5113286;28;20174;-87
2022/10/26 07:22:52;;;;;;;11.70;2.43;;;;;;;25.09;37.47;99450.34;5095352;28;20180;-89
2022/10/26 07:25:18;;;;;;;10.57;2.20;;;;;;;24.94;37.83;99451.00;5095628;28;20291;-89
2022/10/26 07:27:43;;;;;;;5.43;1.83;;;;;;;24.96;37.84;99448.16;5113782;28;20254;-88
2022/10/26 07:30:09;;;;;;;6.20;2.57;;;;;;;24.93;37.80;99446.63;5113132;28;20275;-88
2022/10/26 07:32:34;;;;;;;6.17;1.77;;;;;;;25.00;37.85;99450.31;5114057;28;20172;-88
2022/10/26 07:35:00;;;;;;;9.47;2.47;;;;;;;24.85;37.94;99449.28;5095203;28;20624;-88
2022/10/26 07:37:26;;;;;;;6.63;2.80;;;;;;;24.86;38.14;99450.97;5095136;28;20180;-88
2022/10/26 07:39:51;;;;;;;12.17;2.77;;;;;;;24.79;37.88;99444.56;5095176;28;20224;-88
2022/10/26 07:42:17;;;;;;;9.40;2.83;;;;;;;24.59;38.43;99448.50;5095503;28;20176;-87
2022/10/26 07:44:43;;;;;;;6.33;2.17;;;;;;;24.60;38.29;99450.19;5113350;28;20172;-88
2022/10/26 07:47:08;;;;;;;9.57;2.70;;;;;;;24.29;39.17;99452.53;5095078;28;20596;-88
2022/10/26 07:49:34;;;;;;;6.73;2.23;;;;;;;24.15;38.98;99455.84;5096903;28;20191;-88
2022/10/26 07:51:59;;;;;;;14.53;2.80;;;;;;;24.13;39.06;99452.47;5098961;28;20191;-89
2022/10/26 07:54:25;;;;;;;5.37;2.23;;;;;;;24.30;39.10;99453.38;5116872;28;20203;-88
2022/10/26 07:56:50;;;;;;;5.37;1.67;;;;;;;24.34;38.78;99455.59;5098895;28;20164;-89
2022/10/26 07:59:17;;;;;;;5.47;1.70;;;;;;;24.36;38.40;99455.44;5098866;28;20182;-88
2022/10/26 08:01:43;;;;;;;9.20;2.37;;;;;;;24.53;38.88;99449.13;5116744;28;20258;-87
2022/10/26 08:04:08;;;;;;;6.00;1.70;;;;;;;24.66;37.85;99452.19;5116978;28;20254;-89
2022/10/26 08:06:34;;;;;;;6.63;1.73;;;;;;;24.73;37.99;99455.94;5099030;28;20178;-89
2022/10/26 08:08:59;;;;;;;8.07;2.33;;;;;;;24.61;38.50;99454.53;5099406;28;20207;-87
2022/10/26 08:11:25;;;;;;;4.93;1.57;;;;;;;24.75;37.81;99459.28;5098609;28;20176;-88
2022/10/26 08:13:52;;;;;;;6.63;2.10;;;;;;;24.78;37.60;99455.44;5116545;28;20179;-88
2022/10/26 08:16:18;;;;;;;6.47;2.13;;;;;;;24.98;37.37;99455.03;5116530;28;20176;-88
2022/10/26 08:18:43;;;;;;;7.20;2.40;;;;;;;25.15;37.57;99461.28;5099342;28;20180;-87
2022/10/26 08:21:13;;;;;;;11.70;2.10;;;;;;;25.30;36.55;99451.56;5098405;28;20175;-87
2022/10/26 08:23:39;;;;;;;4.40;1.23;;;;;;;25.11;36.50;99456.38;5116329;28;20649;-88
2022/10/26 08:26:05;;;;;;;5.50;1.90;;;;;;;25.44;36.12;99453.59;5098345;28;20183;-88
2022/10/26 08:28:31;;;;;;;5.93;1.90;;;;;;;25.65;35.44;99459.31;5098238;28;20259;-88
2022/10/26 08:30:56;;;;;;;3.60;1.40;;;;;;;25.80;35.16;99446.03;5098352;28;20261;-88
2022/10/26 08:33:22;;;;;;;4.37;1.20;;;;;;;26.00;34.79;99452.72;5116444;28;20232;-88
2022/10/26 08:35:53;;;;;;;4.30;1.67;;;;;;;26.08;34.29;99450.03;5116111;28;20172;-88
2022/10/26 08:38:19;;;;;;;7.40;1.53;;;;;;;26.30;34.13;99443.13;5098678;28;20258;-87
2022/10/26 08:40:44;;;;;;;4.40;1.67;;;;;;;26.38;33.81;99447.63;5116018;28;20251;-87
2022/10/26 08:43:10;;;;;;;9.73;1.23;;;;;;;26.46;33.98;99447.59;5098496;28;20278;-88
2022/10/26 08:45:39;;;;;;;3.23;1.57;;;;;;;26.48;33.45;99446.41;5115907;28;20688;-88
2022/10/26 08:48:11;;;;;;;4.50;1.23;;;;;;;26.62;33.30;99450.22;5116426;28;20168;-89
2022/10/26 08:50:50;;;;;;;4.00;1.23;;;;;;;26.74;33.38;99451.50;5115800;28;20252;-88
2022/10/26 08:53:19;;;;;;;3.93;0.77;;;;;;;26.80;33.17;99461.59;5097729;28;20343;-88
2022/10/26 08:55:58;;;;;;;2.80;0.77;;;;;;;27.04;32.93;99461.47;5098378;28;20182;-88
2022/10/26 08:58:30;;;;;;;4.13;1.40;;;;;;;27.14;32.92;99458.53;5098585;28;20170;-88
2022/10/26 09:00:57;;;;;;;6.43;1.33;;;;;;;27.41;31.96;99453.47;5115561;28;20239;-88
2022/10/26 09:03:23;;;;;;;5.30;1.10;;;;;;;27.63;31.80;99454.47;5098154;28;20171;-87
2022/10/26 09:06:12;;;;;;;1.23;0.68;;;;;;;27.69;31.04;99451.06;5097816;28;20180;-89
2022/10/26 09:08:51;;;;;;;2.55;1.33;;;;;;;27.91;30.95;99446.63;5047066;28;20184;-88
2022/10/26 09:11:32;;;;;;;2.72;1.20;;;;;;;28.04;31.03;99453.09;5097393;28;20244;-87
2022/10/26 09:14:09;;;;;;;6.83;1.20;;;;;;;28.09;30.84;99452.56;5116236;28;20171;-88
2022/10/26 09:16:55;;;;;;;3.42;0.80;;;;;;;27.98;30.81;99442.22;5097316;28;20160;-88
2022/10/26 09:19:26;;;;;;;2.55;0.90;;;;;;;28.14;30.65;99446.63;5097593;28;20220;-88
2022/10/26 09:22:09;;;;;;;2.80;1.00;;;;;;;28.14;31.16;99452.00;5097271;28;20259;-88
2022/10/26 09:24:41;;;;;;;11.43;1.37;;;;;;;28.12;30.68;99441.41;5097241;28;20652;-87
2022/10/26 09:27:22;;;;;;;3.35;1.42;;;;;;;27.98;31.23;99444.91;5097120;28;20171;-88
2022/10/26 09:29:50;;;;;;;3.78;1.00;;;;;;;28.17;30.56;99436.28;5098175;28;20586;-88
2022/10/26 09:32:55;;;;;;;6.32;1.83;;;;;;;28.44;30.68;99443.72;5115025;28;20255;-87
2022/10/26 09:35:24;;;;;;;2.35;0.73;;;;;;;28.62;30.16;99440.66;5096131;28;20223;-88
2022/10/26 09:37:59;;;;;;;1.98;0.95;;;;;;;28.70;29.83;99437.88;5115145;28;20167;-88
2022/10/26 09:40:33;;;;;;;3.05;1.08;;;;;;;28.86;29.65;99434.09;5096898;28;20210;-88
2022/10/26 09:43:05;;;;;;;3.05;1.20;;;;;;;28.83;29.50;99437.19;5097201;28;20179;-87
2022/10/26 09:45:38;;;;;;;3.42;0.85;;;;;;;28.99;29.77;99436.97;5097349;28;20164;-89
2022/10/26 09:48:21;;;;;;;4.22;0.93;;;;;;;29.16;28.60;99441.94;5097175;28;20573;-88
2022/10/26 09:50:48;;;;;;;2.00;0.52;;;;;;;29.14;28.37;99438.59;5096596;28;20191;-88
2022/10/26 09:53:15;;;;;;;2.55;1.00;;;;;;;29.29;28.28;99435.88;5114446;28;20547;-88
2022/10/26 09:55:44;;;;;;;1.23;0.50;;;;;;;29.39;28.14;99433.69;5096619;28;20191;-88
2022/10/26 09:58:33;;;;;;;4.20;0.73;;;;;;;29.53;28.08;99426.53;5096535;28;20239;-88
2022/10/26 10:00:58;;;;;;;1.80;0.50;;;;;;;29.44;28.05;99430.38;5096740;28;20542;-88
2022/10/26 10:03:30;;;;;;;1.92;1.15;;;;;;;29.66;29.06;99422.09;5114384;28;20171;-88
2022/10/26 10:06:19;;;;;;;3.53;0.85;;;;;;;29.67;27.88;99426.44;5114609;28;20176;-88
2022/10/26 10:09:10;;;;;;;0.98;0.40;;;;;;;29.59;27.59;99423.88;5114608;28;20180;-89
2022/10/26 10:11:55;;;;;;;3.10;0.90;;;;;;;29.78;27.64;99414.25;5096334;28;20697;-88
2022/10/26 10:14:31;;;;;;;6.78;1.05;;;;;;;29.94;27.61;99407.75;5113816;28;20164;-88
2022/10/26 10:17:00;;;;;;;2.58;0.93;;;;;;;30.04;27.25;99406.38;5096473;28;20214;-89
2022/10/26 10:19:30;;;;;;;3.13;1.05;;;;;;;30.18;27.57;99408.13;5114102;28;20195;-88
2022/10/26 10:21:59;;;;;;;2.10;0.80;;;;;;;30.25;27.11;99409.00;5096944;28;20168;-89
2022/10/26 10:24:30;;;;;;;1.70;0.68;;;;;;;30.28;27.56;99415.88;5096574;28;20248;-89
2022/10/26 10:27:05;;;;;;;1.92;0.73;;;;;;;30.49;26.80;99404.97;5114556;28;20583;-88
2022/10/26 10:29:33;;;;;;;4.32;1.13;;;;;;;30.36;27.21;99415.75;5114362;28;20199;-89
2022/10/26 10:32:01;;;;;;;7.55;0.80;;;;;;;30.48;26.81;99403.31;5113892;28;20179;-88
2022/10/26 10:34:29;;;;;;;0.90;0.43;;;;;;;30.55;26.67;99404.19;5113849;28;20624;-89
2022/10/26 10:36:55;;;;;;;3.05;1.13;;;;;;;30.63;27.03;99404.00;5095815;28;20199;-89
2022/10/26 10:39:40;;;;;;;1.90;0.65;;;;;;;30.22;26.80;99403.13;5114031;28;20617;-88
2022/10/26 10:42:28;;;;;;;6.13;0.95;;;;;;;30.55;26.83;99404.19;5114058;28;20160;-89
2022/10/26 10:44:56;;;;;;;3.30;1.55;;;;;;;30.70;26.37;99395.91;5114007;28;20171;-89
2022/10/26 10:47:24;;;;;;;2.33;0.68;;;;;;;30.42;27.46;99387.91;5113891;28;20184;-89
2022/10/26 10:49:57;;;;;;;2.63;1.08;;;;;;;30.65;26.82;99393.81;5095803;28;20690;-89
2022/10/26 10:52:29;;;;;;;4.13;0.90;;;;;;;30.76;26.35;99389.69;5113477;28;20202;-89
2022/10/26 10:55:02;;;;;;;2.00;0.63;;;;;;;30.94;26.77;99393.53;5113888;28;20160;-89
2022/10/26 10:58:06;;;;;;;3.05;1.10;;;;;;;31.18;26.33;99394.81;5113888;28;20171;-88
2022/10/26 11:00:35;;;;;;;2.67;0.82;;;;;;;31.30;26.17;99376.06;5064879;28;20541;-88
2022/10/26 11:03:42;;;;;;;2.78;1.02;;;;;;;31.33;25.96;99378.34;5113783;28;20262;-88
2022/10/26 11:06:19;;;;;;;5.55;1.30;;;;;;;31.38;25.72;99373.16;5011639;28;20178;-89
2022/10/26 11:09:01;;;;;;;4.25;1.08;;;;;;;31.60;25.76;99370.03;5104085;28;20206;-88
2022/10/26 11:11:32;;;;;;;2.78;0.75;;;;;;;31.85;25.65;99374.81;5114211;28;20207;-89
2022/10/26 11:14:18;;;;;;;4.75;0.77;;;;;;;31.89;24.86;99376.88;5113384;28;20700;-89
2022/10/26 11:16:54;;;;;;;1.90;1.00;;;;;;;31.82;25.73;99364.38;5112787;28;20215;-89
2022/10/26 11:19:58;;;;;;;3.70;1.10;;;;;;;31.81;25.34;99369.00;5095390;28;20218;-89
2022/10/26 11:22:33;;;;;;;3.08;0.90;;;;;;;31.44;25.65;99375.03;5095399;28;20168;-88
2022/10/26 11:25:10;;;;;;;6.03;1.02;;;;;;;31.34;25.67;99374.63;5097729;28;20186;-88
2022/10/26 11:27:42;;;;;;;5.28;0.70;;;;;;;31.40;25.80;99371.06;5117743;28;20155;-89
2022/10/26 11:30:19;;;;;;;1.60;0.75;;;;;;;31.57;25.76;99375.91;5117647;28;20187;-89
2022/10/26 11:32:59;;;;;;;2.75;1.15;;;;;;;30.77;26.42;99378.63;5117330;28;20248;-89
2022/10/26 11:35:44;;;;;;;3.80;0.90;;;;;;;30.75;25.96;99371.75;5117549;28;20159;-89
2022/10/26 11:38:15;;;;;;;2.42;0.80;;;;;;;30.91;26.13;99366.00;5117537;28;20251;-89
2022/10/26 11:41:09;;;;;;;3.40;0.88;;;;;;;30.85;26.39;99367.63;5117111;28;20241;-89
2022/10/26 11:43:46;;;;;;;4.00;1.00;;;;;;;31.11;26.27;99374.16;5117473;28;20168;-89
2022/10/26 11:46:29;;;;;;;5.07;1.45;;;;;;;31.18;26.36;99366.88;5099410;28;20159;-89
2022/10/26 11:49:04;;;;;;;6.57;0.93;;;;;;;31.36;25.68;99367.09;5117329;28;20164;-90